Aérodrome :
LOGIN :

S'inscrire | Disclaimer

   EN    FR    IT 

 










Légende :    VFR   VFR Marginal   IFR   IFR Intensif   IFR Très Intensif
Visi : 
Plafond : 
>= 8 km
>= 3000ft
5 à 8 km
1000 à 3000 ft
1500m à 5 km
500 à 1000 ft
800 à 1500m
200 à 500 ft
< 800m
< 200 ft
Symboles :   Orages  Brouillard  Fortes neiges  Fortes précipitations  Vent > 20 kt
SIGMETs :   Divers  Orages  Givrage  Turbulence  Onde Orograph.  Cendres Volcan.







- Altitude de l'aérodrome : 1079 ft


ETIK - Illesheim Air Base

DERNIER METAR :
  • 181656Z AUTO 00000KT 9999 BKN039 BKN046 15/09 A3015 RMK AO2 SLP216 T01500091 $

METARs EXPIRÉS :
  • 181556Z AUTO 04005KT 9999 CLR 18/10 A3013 RMK AO2 SLP206 T01760097 $
  • 181456Z AUTO 04009KT 9999 FEW044 20/10 A3013 RMK AO2 SLP205 T01960100 55003 $

TAF TAF ETIK
Valide du 18 à 13h jusqu'au 19 à 19h UTC


181307Z 1813/1919 02009KT 9999 FEW040 QNH3009INS
BECMG 1820/1821 VRB06KT 5000 BR SKC QNH3018INS
TEMPO 1902/1906 3200 BR BKN002
BECMG 1907/1908 05006KT 9999 NSW FEW030 QNH3020INS TX20/1813Z TN04/1905Z
Pas de NOTAMs connus pour ce terrain.



MET'MAP, la Météo Aéronautique d'un coup d'oeil ! - Copyright ORBIFLY Décembre 2007 - Disclaimer

ORBIFLY MET'MAP TEAM :

Programmation & Développement : Alexandra Zaïnal
Conception & Développement : Baudouin d'Aumeries
Co-Programmation & Développement : Marc-Olivier Méhu
Soutien technique & logistique : Manuel Goepfert

Contact : metmap@orbifly.com




SOURCES & CREDITS :

   NOAA